Saltar para o conteúdo principal

Porto, Massarelos

ID 1240903 · 41.1526, -8.6260 mapa

Última leitura · 2026-05-09 19:00 (Europe/Lisbon)

Temperatura
17.0 °C
Humidade
72 %
Pressão
Precipitação
0.0 mm
Radiação
Velocidade do vento
Direcção do vento
Sem vento

Histórico de 24 horas

Hora (Europe/Lisbon) Temperatura Humidade Pressão Chuva Vento Direcção
2026-05-09 19:00 17.0 °C 72 % 0.0 mm
2026-05-09 18:00 17.1 °C 74 % 0.1 mm
2026-05-09 17:00 16.9 °C 76 % 0.0 mm
2026-05-09 16:00 15.8 °C 89 % 0.0 mm
2026-05-09 15:00 13.6 °C 99 % 6.2 mm
2026-05-09 14:00 17.5 °C 69 % 3.6 mm
2026-05-09 13:00 16.4 °C 80 % 0.0 mm
2026-05-09 12:00 13.8 °C 100 % 1.0 mm
2026-05-09 11:00 13.2 °C 97 % 3.2 mm
2026-05-09 10:00 14.5 °C 87 % 1.3 mm
2026-05-09 09:00 15.0 °C 74 % 0.2 mm
2026-05-09 08:00 15.2 °C 69 % 0.0 mm
2026-05-09 07:00 14.4 °C 73 % 0.0 mm
2026-05-09 06:00 14.6 °C 74 % 0.0 mm
2026-05-09 05:00 15.1 °C 72 % 0.0 mm
2026-05-09 04:00 15.2 °C 74 % 0.0 mm
2026-05-09 03:00 14.1 °C 91 % 0.0 mm
2026-05-09 02:00 14.1 °C 95 % 0.0 mm
2026-05-09 01:00 14.9 °C 84 % 0.9 mm
2026-05-09 00:00 17.0 °C 57 % 0.0 mm
2026-05-08 23:00 17.4 °C 54 % 0.0 mm
2026-05-08 22:00 17.7 °C 53 % 0.0 mm
2026-05-08 21:00 18.4 °C 50 % 0.0 mm
2026-05-08 20:00 18.8 °C 49 % 0.0 mm